Dexter, Maine
Current Conditions -  °F | °C
As of 7:27 AM on Tuesday 27 Jan 2015 (Local Time) from KBGR Reporting Station
Heavy Snow Heavy Snow  
Wind Chill: -16°   Ceiling: 400
Heat Index:   Visibility: 0.25mi
Dew Point:   Wind: 25mph
Humidity: 83%   Direction: 10°N
Pressure: 29.84"   Gusts: 40mph
Location:  45.02°N, 69.28°W
Report Text: KBGR 271227Z 01022G35KT 1/4SM R15/1600V2000FT +SN BLSN VV004 M14/M17 A2984 RMK AO2 PK WND 36039/1154 P0002 T11441167
Loading
Personal Weather Stations






























Interactive Weather Map New forecast layout! Learn more

10-Day Weather Forecast

Advertisements
Track Severe Weather on mobile